Uranus L — 9LU2406 — position and weather

sailwx.info

Track history (hours):
 
Tides and Currents Weather Stations Pressure Air Temp Water Temp Dewpoint Dewpoint Depression Visibility Wind Speed Wind Dir Waves Ship Positions

Uranus L

Last reported at 2018-Jul-20 16:00 UTC. Time now 2018-Jul-20 15:59 UTC.
Position N 36°58' W 009°20'.

Length 84 m; draft 4.7 m.

Type: Cargo ship. MMSI: 667001603.

Date/timePositionNaut miles runAvg speedWind from/ knotsBaromVisibWave heightAir tempDewpointWater temp
2018-Jul-20 16:00N 36°58' W 009°20'77 6.9
2018-Jul-20 04:49N 36°25' W 007°52'3 8.1
2018-Jul-20 04:24N 36°24' W 007°48'104 7.9
2018-Jul-19 15:15N 35°58' W 005°43'10 6.8
2018-Jul-19 13:47N 35°59' W 005°31'2 6.1
2018-Jul-19 13:29N 35°60' W 005°29'347 7.9
2018-Jul-17 17:43N 37°02' E 001°36'2 8.6
2018-Jul-17 17:29N 37°03' E 001°38'4 8.7
2018-Jul-17 17:00N 37°04' E 001°43'4 8.6
2018-Jul-17 16:30N 37°05' E 001°48'4 8.6
2018-Jul-17 16:00N 37°06' E 001°54'4 8.6
2018-Jul-17 15:30N 37°07' E 001°59'4 8.5
2018-Jul-17 14:58N 37°08' E 002°04'4 8.5
2018-Jul-17 14:30N 37°09' E 002°09'9 8.6
2018-Jul-17 13:26N 37°10' E 002°21'4 8.7
2018-Jul-17 13:00N 37°10' E 002°25'5 8.9
2018-Jul-17 12:24N 37°11' E 002°32'6 9.1
2018-Jul-17 11:44N 37°11' E 002°40'2 9.2
2018-Jul-17 11:30N 37°12' E 002°42'6 9.4
2018-Jul-17 10:54N 37°13' E 002°49'4 9.3
2018-Jul-17 10:27N 37°14' E 002°54'31 9.1
2018-Jul-17 07:00N 37°16' E 003°34'4 8.9
2018-Jul-17 06:30N 37°16' E 003°39'5 8.8
2018-Jul-17 05:58N 37°16' E 003°45'5 8.7
2018-Jul-17 05:21N 37°17' E 003°52'38 8.0
2018-Jul-17 00:39N 37°24' E 004°38'2 7.5
2018-Jul-17 00:26N 37°24' E 004°40'7 7.4
2018-Jul-16 23:30N 37°25' E 004°49'4 7.5
2018-Jul-16 22:59N 37°26' E 004°54'4 7.4
2018-Jul-16 22:30N 37°26' E 004°58'24 7.2
2018-Jul-16 19:13N 37°26' E 005°28'1 6.6
2018-Jul-16 18:59N 37°26' E 005°30'  
2018-Jul-14 10:57N 36°39' E 014°36'4 8.2
2018-Jul-14 10:30N 36°39' E 014°40'4 8.7
2018-Jul-14 09:59N 36°38' E 014°46'  
Track history (hours):
 
Tides and Currents Weather Stations Pressure Air Temp Water Temp Dewpoint Dewpoint Depression Visibility Wind Speed Wind Dir Waves Ship Positions

Uranus L

Last reported at 2018-Jul-20 16:00 UTC. Time now 2018-Jul-20 15:59 UTC.
Position N 36°58' W 009°20'.

Length 84 m; draft 4.7 m.

Type: Cargo ship. MMSI: 667001603.

Date/timePositionNaut miles runAvg speedWind from/ knotsBaromVisibWave heightAir tempDewpointWater temp
2018-Jul-20 16:00N 36°58' W 009°20'77 6.9
2018-Jul-20 04:49N 36°25' W 007°52'3 8.1
2018-Jul-20 04:24N 36°24' W 007°48'104 7.9
2018-Jul-19 15:15N 35°58' W 005°43'10 6.8
2018-Jul-19 13:47N 35°59' W 005°31'2 6.1
2018-Jul-19 13:29N 35°60' W 005°29'347 7.9
2018-Jul-17 17:43N 37°02' E 001°36'2 8.6
2018-Jul-17 17:29N 37°03' E 001°38'4 8.7
2018-Jul-17 17:00N 37°04' E 001°43'4 8.6
2018-Jul-17 16:30N 37°05' E 001°48'4 8.6
2018-Jul-17 16:00N 37°06' E 001°54'4 8.6
2018-Jul-17 15:30N 37°07' E 001°59'4 8.5
2018-Jul-17 14:58N 37°08' E 002°04'4 8.5
2018-Jul-17 14:30N 37°09' E 002°09'9 8.6
2018-Jul-17 13:26N 37°10' E 002°21'4 8.7
2018-Jul-17 13:00N 37°10' E 002°25'5 8.9
2018-Jul-17 12:24N 37°11' E 002°32'6 9.1
2018-Jul-17 11:44N 37°11' E 002°40'2 9.2
2018-Jul-17 11:30N 37°12' E 002°42'6 9.4
2018-Jul-17 10:54N 37°13' E 002°49'4 9.3
2018-Jul-17 10:27N 37°14' E 002°54'31 9.1
2018-Jul-17 07:00N 37°16' E 003°34'4 8.9
2018-Jul-17 06:30N 37°16' E 003°39'5 8.8
2018-Jul-17 05:58N 37°16' E 003°45'5 8.7
2018-Jul-17 05:21N 37°17' E 003°52'38 8.0
2018-Jul-17 00:39N 37°24' E 004°38'2 7.5
2018-Jul-17 00:26N 37°24' E 004°40'7 7.4
2018-Jul-16 23:30N 37°25' E 004°49'4 7.5
2018-Jul-16 22:59N 37°26' E 004°54'4 7.4
2018-Jul-16 22:30N 37°26' E 004°58'24 7.2
2018-Jul-16 19:13N 37°26' E 005°28'1 6.6
2018-Jul-16 18:59N 37°26' E 005°30'  
2018-Jul-14 10:57N 36°39' E 014°36'4 8.2
2018-Jul-14 10:30N 36°39' E 014°40'4 8.7
2018-Jul-14 09:59N 36°38' E 014°46'  

Dump ship's entire track history